sensor_id;sensor_type;location;lat;lon;timestamp;P1;durP1;ratioP1;P2;durP2;ratioP2
73675;SDS011;61975;48.660;10.164;2022-07-23T00:01:32;10.48;;;8.10;;
73675;SDS011;61975;48.660;10.164;2022-07-23T00:03:58;11.77;;;7.80;;
73675;SDS011;61975;48.660;10.164;2022-07-23T00:06:24;9.80;;;6.68;;
73675;SDS011;61975;48.660;10.164;2022-07-23T00:08:50;9.20;;;6.80;;
73675;SDS011;61975;48.660;10.164;2022-07-23T00:11:16;8.63;;;6.65;;
73675;SDS011;61975;48.660;10.164;2022-07-23T00:13:42;9.25;;;6.60;;
73675;SDS011;61975;48.660;10.164;2022-07-23T00:16:07;8.73;;;5.87;;
73675;SDS011;61975;48.660;10.164;2022-07-23T00:18:33;7.18;;;5.30;;
73675;SDS011;61975;48.660;10.164;2022-07-23T00:20:58;7.67;;;5.43;;
73675;SDS011;61975;48.660;10.164;2022-07-23T00:23:24;7.90;;;5.60;;
73675;SDS011;61975;48.660;10.164;2022-07-23T00:25:50;7.47;;;5.28;;
73675;SDS011;61975;48.660;10.164;2022-07-23T00:28:17;7.85;;;5.50;;
73675;SDS011;61975;48.660;10.164;2022-07-23T00:30:43;7.83;;;5.33;;
73675;SDS011;61975;48.660;10.164;2022-07-23T00:33:09;8.15;;;5.43;;
73675;SDS011;61975;48.660;10.164;2022-07-23T00:35:36;8.57;;;5.40;;
73675;SDS011;61975;48.660;10.164;2022-07-23T00:38:05;6.83;;;5.17;;
73675;SDS011;61975;48.660;10.164;2022-07-23T00:40:31;7.30;;;5.60;;
73675;SDS011;61975;48.660;10.164;2022-07-23T00:42:58;7.72;;;5.65;;
73675;SDS011;61975;48.660;10.164;2022-07-23T00:45:24;7.10;;;5.50;;
73675;SDS011;61975;48.660;10.164;2022-07-23T00:47:50;9.53;;;5.83;;
73675;SDS011;61975;48.660;10.164;2022-07-23T00:50:15;9.02;;;5.80;;
73675;SDS011;61975;48.660;10.164;2022-07-23T00:52:41;7.80;;;5.80;;
73675;SDS011;61975;48.660;10.164;2022-07-23T00:55:07;8.63;;;5.70;;
73675;SDS011;61975;48.660;10.164;2022-07-23T00:57:34;7.95;;;5.85;;
73675;SDS011;61975;48.660;10.164;2022-07-23T01:00:01;10.45;;;5.82;;
73675;SDS011;61975;48.660;10.164;2022-07-23T01:02:26;7.83;;;5.83;;
73675;SDS011;61975;48.660;10.164;2022-07-23T01:04:52;12.50;;;6.43;;
73675;SDS011;61975;48.660;10.164;2022-07-23T01:07:18;8.83;;;5.60;;
73675;SDS011;61975;48.660;10.164;2022-07-23T01:09:44;10.80;;;5.75;;
73675;SDS011;61975;48.660;10.164;2022-07-23T01:12:10;9.32;;;5.60;;
73675;SDS011;61975;48.660;10.164;2022-07-23T01:14:36;9.70;;;6.10;;
73675;SDS011;61975;48.660;10.164;2022-07-23T01:17:02;10.68;;;5.95;;
73675;SDS011;61975;48.660;10.164;2022-07-23T01:19:29;9.75;;;5.90;;
73675;SDS011;61975;48.660;10.164;2022-07-23T01:21:55;9.87;;;6.00;;
73675;SDS011;61975;48.660;10.164;2022-07-23T01:24:23;9.93;;;5.97;;
73675;SDS011;61975;48.660;10.164;2022-07-23T01:26:49;9.07;;;5.50;;
73675;SDS011;61975;48.660;10.164;2022-07-23T01:29:15;8.63;;;5.57;;
73675;SDS011;61975;48.660;10.164;2022-07-23T01:31:41;7.60;;;5.45;;
73675;SDS011;61975;48.660;10.164;2022-07-23T01:34:08;9.13;;;6.00;;
73675;SDS011;61975;48.660;10.164;2022-07-23T01:36:34;8.33;;;5.63;;
73675;SDS011;61975;48.660;10.164;2022-07-23T01:39:00;8.13;;;5.65;;
73675;SDS011;61975;48.660;10.164;2022-07-23T01:41:25;8.00;;;5.53;;
73675;SDS011;61975;48.660;10.164;2022-07-23T01:43:50;7.97;;;5.57;;
73675;SDS011;61975;48.660;10.164;2022-07-23T01:46:16;7.90;;;5.73;;
73675;SDS011;61975;48.660;10.164;2022-07-23T01:48:41;7.77;;;6.00;;
73675;SDS011;61975;48.660;10.164;2022-07-23T01:51:07;9.65;;;6.10;;
73675;SDS011;61975;48.660;10.164;2022-07-23T01:53:33;9.20;;;5.87;;
73675;SDS011;61975;48.660;10.164;2022-07-23T01:55:58;10.43;;;6.50;;
73675;SDS011;61975;48.660;10.164;2022-07-23T01:58:25;9.17;;;6.33;;
73675;SDS011;61975;48.660;10.164;2022-07-23T02:00:51;9.43;;;6.18;;
73675;SDS011;61975;48.660;10.164;2022-07-23T02:03:17;7.68;;;5.90;;
73675;SDS011;61975;48.660;10.164;2022-07-23T02:05:42;9.60;;;6.17;;
73675;SDS011;61975;48.660;10.164;2022-07-23T02:08:08;8.10;;;6.37;;
73675;SDS011;61975;48.660;10.164;2022-07-23T02:10:33;8.67;;;6.50;;
73675;SDS011;61975;48.660;10.164;2022-07-23T02:12:58;10.82;;;6.57;;
73675;SDS011;61975;48.660;10.164;2022-07-23T02:15:24;7.90;;;6.00;;
73675;SDS011;61975;48.660;10.164;2022-07-23T02:17:49;7.43;;;5.97;;
73675;SDS011;61975;48.660;10.164;2022-07-23T02:20:15;8.27;;;6.50;;
73675;SDS011;61975;48.660;10.164;2022-07-23T02:22:40;9.43;;;6.07;;
73675;SDS011;61975;48.660;10.164;2022-07-23T02:25:06;9.52;;;6.68;;
73675;SDS011;61975;48.660;10.164;2022-07-23T02:27:32;10.23;;;6.57;;
73675;SDS011;61975;48.660;10.164;2022-07-23T02:29:58;11.38;;;6.40;;
73675;SDS011;61975;48.660;10.164;2022-07-23T02:32:24;8.55;;;6.32;;
73675;SDS011;61975;48.660;10.164;2022-07-23T02:34:50;9.57;;;6.60;;
73675;SDS011;61975;48.660;10.164;2022-07-23T02:37:16;9.30;;;6.38;;
73675;SDS011;61975;48.660;10.164;2022-07-23T02:39:42;9.00;;;6.50;;
73675;SDS011;61975;48.660;10.164;2022-07-23T02:42:08;8.40;;;6.43;;
73675;SDS011;61975;48.660;10.164;2022-07-23T02:44:33;9.13;;;6.82;;
73675;SDS011;61975;48.660;10.164;2022-07-23T02:46:59;9.50;;;7.13;;
73675;SDS011;61975;48.660;10.164;2022-07-23T02:49:24;10.67;;;6.67;;
73675;SDS011;61975;48.660;10.164;2022-07-23T02:51:50;9.50;;;6.80;;
73675;SDS011;61975;48.660;10.164;2022-07-23T02:54:15;10.02;;;6.55;;
73675;SDS011;61975;48.660;10.164;2022-07-23T02:56:41;9.33;;;6.60;;
73675;SDS011;61975;48.660;10.164;2022-07-23T02:59:07;9.77;;;6.78;;
73675;SDS011;61975;48.660;10.164;2022-07-23T03:01:32;9.63;;;7.13;;
73675;SDS011;61975;48.660;10.164;2022-07-23T03:03:59;10.32;;;6.95;;
73675;SDS011;61975;48.660;10.164;2022-07-23T03:06:25;9.43;;;6.57;;
73675;SDS011;61975;48.660;10.164;2022-07-23T03:08:50;10.13;;;6.97;;
73675;SDS011;61975;48.660;10.164;2022-07-23T03:11:16;8.80;;;6.43;;
73675;SDS011;61975;48.660;10.164;2022-07-23T03:13:41;10.43;;;7.53;;
73675;SDS011;61975;48.660;10.164;2022-07-23T03:16:07;9.63;;;6.85;;
73675;SDS011;61975;48.660;10.164;2022-07-23T03:18:33;12.90;;;7.30;;
73675;SDS011;61975;48.660;10.164;2022-07-23T03:20:59;10.05;;;7.10;;
73675;SDS011;61975;48.660;10.164;2022-07-23T03:23:24;11.77;;;7.67;;
73675;SDS011;61975;48.660;10.164;2022-07-23T03:25:50;11.18;;;7.38;;
73675;SDS011;61975;48.660;10.164;2022-07-23T03:28:16;9.43;;;6.60;;
73675;SDS011;61975;48.660;10.164;2022-07-23T03:30:42;10.27;;;6.95;;
73675;SDS011;61975;48.660;10.164;2022-07-23T03:33:10;10.07;;;7.28;;
73675;SDS011;61975;48.660;10.164;2022-07-23T03:35:35;9.23;;;7.03;;
73675;SDS011;61975;48.660;10.164;2022-07-23T03:38:01;10.97;;;7.00;;
73675;SDS011;61975;48.660;10.164;2022-07-23T03:40:26;10.57;;;7.63;;
73675;SDS011;61975;48.660;10.164;2022-07-23T03:42:51;10.40;;;7.57;;
73675;SDS011;61975;48.660;10.164;2022-07-23T03:45:17;10.07;;;7.65;;
73675;SDS011;61975;48.660;10.164;2022-07-23T03:47:42;9.80;;;7.43;;
73675;SDS011;61975;48.660;10.164;2022-07-23T03:50:09;10.07;;;6.88;;
73675;SDS011;61975;48.660;10.164;2022-07-23T03:52:35;9.67;;;7.13;;
73675;SDS011;61975;48.660;10.164;2022-07-23T03:55:00;11.07;;;7.70;;
73675;SDS011;61975;48.660;10.164;2022-07-23T03:57:27;10.80;;;7.17;;
73675;SDS011;61975;48.660;10.164;2022-07-23T03:59:52;10.35;;;7.53;;
73675;SDS011;61975;48.660;10.164;2022-07-23T04:02:18;10.73;;;7.80;;
73675;SDS011;61975;48.660;10.164;2022-07-23T04:04:43;11.23;;;7.83;;
73675;SDS011;61975;48.660;10.164;2022-07-23T04:07:08;13.43;;;7.80;;
73675;SDS011;61975;48.660;10.164;2022-07-23T04:09:34;10.68;;;7.72;;
73675;SDS011;61975;48.660;10.164;2022-07-23T04:11:59;9.67;;;7.33;;
73675;SDS011;61975;48.660;10.164;2022-07-23T04:14:26;11.43;;;8.05;;
73675;SDS011;61975;48.660;10.164;2022-07-23T04:16:51;11.57;;;8.07;;
73675;SDS011;61975;48.660;10.164;2022-07-23T04:19:17;10.83;;;7.83;;
73675;SDS011;61975;48.660;10.164;2022-07-23T04:21:42;11.00;;;7.63;;
73675;SDS011;61975;48.660;10.164;2022-07-23T04:24:08;10.73;;;8.05;;
73675;SDS011;61975;48.660;10.164;2022-07-23T04:26:33;10.37;;;7.60;;
73675;SDS011;61975;48.660;10.164;2022-07-23T04:28:58;10.80;;;7.77;;
73675;SDS011;61975;48.660;10.164;2022-07-23T04:31:24;11.90;;;7.73;;
73675;SDS011;61975;48.660;10.164;2022-07-23T04:33:49;12.93;;;7.83;;
73675;SDS011;61975;48.660;10.164;2022-07-23T04:36:15;11.23;;;7.33;;
73675;SDS011;61975;48.660;10.164;2022-07-23T04:38:40;10.87;;;7.20;;
73675;SDS011;61975;48.660;10.164;2022-07-23T04:41:05;11.60;;;7.50;;
73675;SDS011;61975;48.660;10.164;2022-07-23T04:43:31;9.93;;;7.03;;
73675;SDS011;61975;48.660;10.164;2022-07-23T04:45:56;10.02;;;7.53;;
73675;SDS011;61975;48.660;10.164;2022-07-23T04:48:22;10.37;;;7.73;;
73675;SDS011;61975;48.660;10.164;2022-07-23T04:50:47;11.07;;;8.00;;
73675;SDS011;61975;48.660;10.164;2022-07-23T04:53:13;10.63;;;7.53;;
73675;SDS011;61975;48.660;10.164;2022-07-23T04:55:38;10.57;;;7.57;;
73675;SDS011;61975;48.660;10.164;2022-07-23T04:58:03;10.60;;;7.70;;
73675;SDS011;61975;48.660;10.164;2022-07-23T05:00:29;10.47;;;7.50;;
73675;SDS011;61975;48.660;10.164;2022-07-23T05:02:54;9.43;;;7.37;;
73675;SDS011;61975;48.660;10.164;2022-07-23T05:05:20;9.65;;;7.43;;
73675;SDS011;61975;48.660;10.164;2022-07-23T05:07:45;10.73;;;7.60;;
73675;SDS011;61975;48.660;10.164;2022-07-23T05:10:11;12.17;;;7.53;;
73675;SDS011;61975;48.660;10.164;2022-07-23T05:12:36;9.47;;;7.07;;
73675;SDS011;61975;48.660;10.164;2022-07-23T05:15:02;11.80;;;7.88;;
73675;SDS011;61975;48.660;10.164;2022-07-23T05:17:27;13.17;;;7.30;;
73675;SDS011;61975;48.660;10.164;2022-07-23T05:19:53;9.90;;;7.40;;
73675;SDS011;61975;48.660;10.164;2022-07-23T05:22:18;10.55;;;7.85;;
73675;SDS011;61975;48.660;10.164;2022-07-23T05:24:44;10.00;;;7.37;;
73675;SDS011;61975;48.660;10.164;2022-07-23T05:27:09;10.90;;;7.77;;
73675;SDS011;61975;48.660;10.164;2022-07-23T05:29:34;10.53;;;7.63;;
73675;SDS011;61975;48.660;10.164;2022-07-23T05:32:00;11.20;;;7.60;;
73675;SDS011;61975;48.660;10.164;2022-07-23T05:34:25;10.18;;;7.18;;
73675;SDS011;61975;48.660;10.164;2022-07-23T05:36:51;10.57;;;7.67;;
73675;SDS011;61975;48.660;10.164;2022-07-23T05:39:16;10.50;;;7.03;;
73675;SDS011;61975;48.660;10.164;2022-07-23T05:41:42;9.67;;;6.93;;
73675;SDS011;61975;48.660;10.164;2022-07-23T05:44:07;12.80;;;7.15;;
73675;SDS011;61975;48.660;10.164;2022-07-23T05:46:32;10.87;;;7.13;;
73675;SDS011;61975;48.660;10.164;2022-07-23T05:48:58;9.77;;;7.30;;
73675;SDS011;61975;48.660;10.164;2022-07-23T05:51:24;10.70;;;7.77;;
73675;SDS011;61975;48.660;10.164;2022-07-23T05:53:50;10.60;;;7.60;;
73675;SDS011;61975;48.660;10.164;2022-07-23T05:56:18;9.68;;;7.30;;
73675;SDS011;61975;48.660;10.164;2022-07-23T05:58:44;10.05;;;7.28;;
73675;SDS011;61975;48.660;10.164;2022-07-23T06:01:09;9.87;;;7.43;;
73675;SDS011;61975;48.660;10.164;2022-07-23T06:03:36;9.57;;;7.32;;
73675;SDS011;61975;48.660;10.164;2022-07-23T06:06:02;10.52;;;7.38;;
73675;SDS011;61975;48.660;10.164;2022-07-23T06:08:28;10.00;;;7.67;;
73675;SDS011;61975;48.660;10.164;2022-07-23T06:10:53;10.13;;;7.20;;
73675;SDS011;61975;48.660;10.164;2022-07-23T06:13:19;10.00;;;7.13;;
73675;SDS011;61975;48.660;10.164;2022-07-23T06:15:44;8.60;;;6.83;;
73675;SDS011;61975;48.660;10.164;2022-07-23T06:18:09;10.90;;;7.37;;
73675;SDS011;61975;48.660;10.164;2022-07-23T06:20:35;8.30;;;6.80;;
73675;SDS011;61975;48.660;10.164;2022-07-23T06:23:00;9.05;;;7.13;;
73675;SDS011;61975;48.660;10.164;2022-07-23T06:25:26;8.97;;;7.23;;
73675;SDS011;61975;48.660;10.164;2022-07-23T06:27:51;10.67;;;7.27;;
73675;SDS011;61975;48.660;10.164;2022-07-23T06:30:17;9.52;;;7.30;;
73675;SDS011;61975;48.660;10.164;2022-07-23T06:32:43;9.43;;;7.70;;
73675;SDS011;61975;48.660;10.164;2022-07-23T06:35:10;11.27;;;7.38;;
73675;SDS011;61975;48.660;10.164;2022-07-23T06:37:35;10.30;;;7.40;;
73675;SDS011;61975;48.660;10.164;2022-07-23T06:40:01;8.70;;;7.15;;
73675;SDS011;61975;48.660;10.164;2022-07-23T06:42:26;9.50;;;7.27;;
73675;SDS011;61975;48.660;10.164;2022-07-23T06:44:52;8.70;;;6.87;;
73675;SDS011;61975;48.660;10.164;2022-07-23T06:47:17;9.93;;;6.28;;
73675;SDS011;61975;48.660;10.164;2022-07-23T06:49:43;9.47;;;6.77;;
73675;SDS011;61975;48.660;10.164;2022-07-23T06:52:08;10.17;;;6.63;;
73675;SDS011;61975;48.660;10.164;2022-07-23T06:54:34;11.07;;;6.57;;
73675;SDS011;61975;48.660;10.164;2022-07-23T06:56:59;10.48;;;6.80;;
73675;SDS011;61975;48.660;10.164;2022-07-23T06:59:25;9.00;;;6.40;;
73675;SDS011;61975;48.660;10.164;2022-07-23T07:01:50;7.97;;;6.40;;
73675;SDS011;61975;48.660;10.164;2022-07-23T07:04:15;7.82;;;5.90;;
73675;SDS011;61975;48.660;10.164;2022-07-23T07:06:41;8.00;;;6.03;;
73675;SDS011;61975;48.660;10.164;2022-07-23T07:09:06;7.93;;;5.77;;
73675;SDS011;61975;48.660;10.164;2022-07-23T07:11:32;8.17;;;6.00;;
73675;SDS011;61975;48.660;10.164;2022-07-23T07:13:57;8.40;;;6.83;;
73675;SDS011;61975;48.660;10.164;2022-07-23T07:16:23;8.43;;;6.30;;
73675;SDS011;61975;48.660;10.164;2022-07-23T07:18:48;9.10;;;6.30;;
73675;SDS011;61975;48.660;10.164;2022-07-23T07:21:14;7.90;;;6.23;;
73675;SDS011;61975;48.660;10.164;2022-07-23T07:23:39;8.32;;;5.97;;
73675;SDS011;61975;48.660;10.164;2022-07-23T07:26:05;9.57;;;6.57;;
73675;SDS011;61975;48.660;10.164;2022-07-23T07:28:30;7.80;;;6.10;;
73675;SDS011;61975;48.660;10.164;2022-07-23T07:30:56;8.87;;;5.77;;
73675;SDS011;61975;48.660;10.164;2022-07-23T07:33:21;8.60;;;6.40;;
73675;SDS011;61975;48.660;10.164;2022-07-23T07:35:47;8.00;;;6.00;;
73675;SDS011;61975;48.660;10.164;2022-07-23T07:38:12;7.68;;;6.35;;
73675;SDS011;61975;48.660;10.164;2022-07-23T07:40:38;8.17;;;5.97;;
73675;SDS011;61975;48.660;10.164;2022-07-23T07:43:03;9.73;;;6.07;;
73675;SDS011;61975;48.660;10.164;2022-07-23T07:45:29;8.82;;;6.82;;
73675;SDS011;61975;48.660;10.164;2022-07-23T07:47:54;8.80;;;6.30;;
73675;SDS011;61975;48.660;10.164;2022-07-23T07:50:20;7.50;;;6.13;;
73675;SDS011;61975;48.660;10.164;2022-07-23T07:52:46;8.48;;;6.35;;
73675;SDS011;61975;48.660;10.164;2022-07-23T07:55:11;8.50;;;6.00;;
73675;SDS011;61975;48.660;10.164;2022-07-23T07:57:37;7.60;;;5.97;;
73675;SDS011;61975;48.660;10.164;2022-07-23T08:00:04;6.80;;;5.55;;
73675;SDS011;61975;48.660;10.164;2022-07-23T08:02:41;7.10;;;5.93;;
73675;SDS011;61975;48.660;10.164;2022-07-23T08:05:08;7.13;;;6.07;;
73675;SDS011;61975;48.660;10.164;2022-07-23T08:07:34;7.22;;;5.85;;
73675;SDS011;61975;48.660;10.164;2022-07-23T08:09:59;7.07;;;6.10;;
73675;SDS011;61975;48.660;10.164;2022-07-23T08:12:25;9.23;;;6.60;;
73675;SDS011;61975;48.660;10.164;2022-07-23T08:14:50;8.20;;;6.30;;
73675;SDS011;61975;48.660;10.164;2022-07-23T08:17:15;7.23;;;6.13;;
73675;SDS011;61975;48.660;10.164;2022-07-23T08:19:41;8.23;;;6.20;;
73675;SDS011;61975;48.660;10.164;2022-07-23T08:22:07;9.20;;;6.10;;
73675;SDS011;61975;48.660;10.164;2022-07-23T08:24:32;7.37;;;6.10;;
73675;SDS011;61975;48.660;10.164;2022-07-23T08:26:57;7.30;;;5.80;;
73675;SDS011;61975;48.660;10.164;2022-07-23T08:29:23;7.82;;;6.18;;
73675;SDS011;61975;48.660;10.164;2022-07-23T08:31:48;7.93;;;6.20;;
73675;SDS011;61975;48.660;10.164;2022-07-23T08:34:14;7.03;;;6.00;;
73675;SDS011;61975;48.660;10.164;2022-07-23T08:36:39;8.33;;;6.10;;
73675;SDS011;61975;48.660;10.164;2022-07-23T08:39:04;9.90;;;5.77;;
73675;SDS011;61975;48.660;10.164;2022-07-23T08:41:30;8.13;;;6.07;;
73675;SDS011;61975;48.660;10.164;2022-07-23T08:43:55;10.10;;;6.17;;
73675;SDS011;61975;48.660;10.164;2022-07-23T08:46:21;7.47;;;6.35;;
73675;SDS011;61975;48.660;10.164;2022-07-23T08:48:48;7.82;;;6.03;;
73675;SDS011;61975;48.660;10.164;2022-07-23T08:51:15;7.23;;;5.90;;
73675;SDS011;61975;48.660;10.164;2022-07-23T08:53:40;7.47;;;6.10;;
73675;SDS011;61975;48.660;10.164;2022-07-23T08:56:06;8.87;;;5.80;;
73675;SDS011;61975;48.660;10.164;2022-07-23T08:58:33;8.77;;;6.25;;
73675;SDS011;61975;48.660;10.164;2022-07-23T09:00:59;7.82;;;6.15;;
73675;SDS011;61975;48.660;10.164;2022-07-23T09:03:26;7.32;;;6.45;;
73675;SDS011;61975;48.660;10.164;2022-07-23T09:05:54;8.20;;;6.03;;
73675;SDS011;61975;48.660;10.164;2022-07-23T09:08:22;7.70;;;6.13;;
73675;SDS011;61975;48.660;10.164;2022-07-23T09:11:00;8.25;;;6.35;;
73675;SDS011;61975;48.660;10.164;2022-07-23T09:16:00;7.43;;;6.10;;
73675;SDS011;61975;48.660;10.164;2022-07-23T09:18:29;7.07;;;6.27;;
73675;SDS011;61975;48.660;10.164;2022-07-23T09:24:11;8.23;;;6.53;;
73675;SDS011;61975;48.660;10.164;2022-07-23T09:26:47;8.55;;;6.55;;
73675;SDS011;61975;48.660;10.164;2022-07-23T09:29:21;8.50;;;6.95;;
73675;SDS011;61975;48.660;10.164;2022-07-23T09:34:29;9.88;;;6.78;;
73675;SDS011;61975;48.660;10.164;2022-07-23T09:37:08;8.07;;;6.85;;
73675;SDS011;61975;48.660;10.164;2022-07-23T09:39:36;8.98;;;6.45;;
73675;SDS011;61975;48.660;10.164;2022-07-23T09:44:44;9.43;;;6.95;;
73675;SDS011;61975;48.660;10.164;2022-07-23T09:47:11;9.65;;;6.72;;
73675;SDS011;61975;48.660;10.164;2022-07-23T09:49:37;7.83;;;6.70;;
73675;SDS011;61975;48.660;10.164;2022-07-23T09:52:03;7.68;;;6.88;;
73675;SDS011;61975;48.660;10.164;2022-07-23T09:57:06;9.35;;;6.95;;
73675;SDS011;61975;48.660;10.164;2022-07-23T09:59:38;8.48;;;7.03;;
73675;SDS011;61975;48.660;10.164;2022-07-23T10:02:04;8.75;;;7.28;;
73675;SDS011;61975;48.660;10.164;2022-07-23T10:04:33;9.50;;;7.45;;
73675;SDS011;61975;48.660;10.164;2022-07-23T10:07:00;8.17;;;7.03;;
73675;SDS011;61975;48.660;10.164;2022-07-23T10:09:28;9.40;;;7.10;;
73675;SDS011;61975;48.660;10.164;2022-07-23T10:12:05;9.63;;;7.03;;
73675;SDS011;61975;48.660;10.164;2022-07-23T10:14:48;8.02;;;6.88;;
73675;SDS011;61975;48.660;10.164;2022-07-23T10:17:15;8.80;;;7.07;;
73675;SDS011;61975;48.660;10.164;2022-07-23T10:19:41;7.70;;;6.60;;
73675;SDS011;61975;48.660;10.164;2022-07-23T10:22:08;8.48;;;7.07;;
73675;SDS011;61975;48.660;10.164;2022-07-23T10:34:00;9.30;;;7.20;;
73675;SDS011;61975;48.660;10.164;2022-07-23T10:36:46;8.77;;;7.38;;
73675;SDS011;61975;48.660;10.164;2022-07-23T10:39:22;8.07;;;7.23;;
73675;SDS011;61975;48.660;10.164;2022-07-23T10:41:49;8.57;;;7.40;;
73675;SDS011;61975;48.660;10.164;2022-07-23T10:44:20;9.15;;;6.63;;
73675;SDS011;61975;48.660;10.164;2022-07-23T10:49:47;7.55;;;6.65;;
73675;SDS011;61975;48.660;10.164;2022-07-23T10:52:23;8.43;;;7.40;;
73675;SDS011;61975;48.660;10.164;2022-07-23T10:55:38;9.07;;;7.20;;
73675;SDS011;61975;48.660;10.164;2022-07-23T10:57:48;7.73;;;6.93;;
73675;SDS011;61975;48.660;10.164;2022-07-23T11:00:37;9.85;;;7.78;;
73675;SDS011;61975;48.660;10.164;2022-07-23T11:03:02;9.35;;;7.80;;
73675;SDS011;61975;48.660;10.164;2022-07-23T11:05:43;7.88;;;7.07;;
73675;SDS011;61975;48.660;10.164;2022-07-23T11:08:10;8.95;;;7.95;;
73675;SDS011;61975;48.660;10.164;2022-07-23T11:16:16;8.10;;;7.30;;
73675;SDS011;61975;48.660;10.164;2022-07-23T11:24:05;8.90;;;7.65;;
73675;SDS011;61975;48.660;10.164;2022-07-23T11:32:01;8.30;;;7.40;;
73675;SDS011;61975;48.660;10.164;2022-07-23T11:34:42;8.90;;;7.82;;
73675;SDS011;61975;48.660;10.164;2022-07-23T11:37:10;8.32;;;7.38;;
73675;SDS011;61975;48.660;10.164;2022-07-23T11:39:37;8.98;;;7.50;;
73675;SDS011;61975;48.660;10.164;2022-07-23T11:42:05;8.18;;;7.15;;
73675;SDS011;61975;48.660;10.164;2022-07-23T11:44:32;8.57;;;7.60;;
73675;SDS011;61975;48.660;10.164;2022-07-23T11:47:03;8.20;;;7.05;;
73675;SDS011;61975;48.660;10.164;2022-07-23T11:49:33;8.60;;;7.50;;
73675;SDS011;61975;48.660;10.164;2022-07-23T11:52:05;9.75;;;7.45;;
73675;SDS011;61975;48.660;10.164;2022-07-23T11:54:32;8.75;;;7.30;;
73675;SDS011;61975;48.660;10.164;2022-07-23T11:56:59;8.87;;;7.97;;
73675;SDS011;61975;48.660;10.164;2022-07-23T11:59:26;8.85;;;7.85;;
73675;SDS011;61975;48.660;10.164;2022-07-23T12:02:00;9.30;;;7.80;;
73675;SDS011;61975;48.660;10.164;2022-07-23T12:04:39;8.90;;;7.53;;
73675;SDS011;61975;48.660;10.164;2022-07-23T12:10:14;8.67;;;7.33;;
73675;SDS011;61975;48.660;10.164;2022-07-23T12:12:43;11.75;;;8.00;;
73675;SDS011;61975;48.660;10.164;2022-07-23T12:15:11;9.57;;;7.47;;
73675;SDS011;61975;48.660;10.164;2022-07-23T12:17:38;9.48;;;7.63;;
73675;SDS011;61975;48.660;10.164;2022-07-23T12:20:05;9.25;;;7.35;;
73675;SDS011;61975;48.660;10.164;2022-07-23T12:22:34;8.30;;;7.40;;
73675;SDS011;61975;48.660;10.164;2022-07-23T12:27:35;8.75;;;7.38;;
73675;SDS011;61975;48.660;10.164;2022-07-23T12:30:20;9.25;;;7.70;;
73675;SDS011;61975;48.660;10.164;2022-07-23T12:32:51;8.70;;;7.50;;
73675;SDS011;61975;48.660;10.164;2022-07-23T12:35:19;9.52;;;7.65;;
73675;SDS011;61975;48.660;10.164;2022-07-23T12:37:46;9.75;;;7.38;;
73675;SDS011;61975;48.660;10.164;2022-07-23T12:43:28;9.45;;;7.57;;
73675;SDS011;61975;48.660;10.164;2022-07-23T12:45:57;8.40;;;7.50;;
73675;SDS011;61975;48.660;10.164;2022-07-23T12:50:53;8.95;;;7.30;;
73675;SDS011;61975;48.660;10.164;2022-07-23T12:53:30;9.43;;;7.47;;
73675;SDS011;61975;48.660;10.164;2022-07-23T12:59:07;8.67;;;7.60;;
73675;SDS011;61975;48.660;10.164;2022-07-23T13:01:36;8.45;;;7.55;;
73675;SDS011;61975;48.660;10.164;2022-07-23T13:04:10;9.43;;;7.25;;
73675;SDS011;61975;48.660;10.164;2022-07-23T13:06:38;8.20;;;7.22;;
73675;SDS011;61975;48.660;10.164;2022-07-23T13:09:09;8.57;;;7.40;;
73675;SDS011;61975;48.660;10.164;2022-07-23T13:11:35;8.20;;;7.10;;
73675;SDS011;61975;48.660;10.164;2022-07-23T13:14:01;8.50;;;7.50;;
73675;SDS011;61975;48.660;10.164;2022-07-23T13:16:27;8.10;;;7.10;;
73675;SDS011;61975;48.660;10.164;2022-07-23T13:18:54;8.10;;;6.90;;
73675;SDS011;61975;48.660;10.164;2022-07-23T13:21:21;8.50;;;7.38;;
73675;SDS011;61975;48.660;10.164;2022-07-23T13:23:47;7.70;;;6.78;;
73675;SDS011;61975;48.660;10.164;2022-07-23T13:26:12;8.50;;;7.10;;
73675;SDS011;61975;48.660;10.164;2022-07-23T13:28:38;7.57;;;6.78;;
73675;SDS011;61975;48.660;10.164;2022-07-23T13:31:03;8.57;;;7.00;;
73675;SDS011;61975;48.660;10.164;2022-07-23T13:33:29;9.43;;;7.40;;
73675;SDS011;61975;48.660;10.164;2022-07-23T13:35:55;7.85;;;7.05;;
73675;SDS011;61975;48.660;10.164;2022-07-23T13:38:20;8.30;;;7.37;;
73675;SDS011;61975;48.660;10.164;2022-07-23T13:40:48;8.65;;;7.05;;
73675;SDS011;61975;48.660;10.164;2022-07-23T13:43:15;9.10;;;6.47;;
73675;SDS011;61975;48.660;10.164;2022-07-23T13:45:42;8.45;;;7.07;;
73675;SDS011;61975;48.660;10.164;2022-07-23T13:48:08;8.65;;;6.70;;
73675;SDS011;61975;48.660;10.164;2022-07-23T13:50:34;8.53;;;6.80;;
73675;SDS011;61975;48.660;10.164;2022-07-23T13:53:04;8.30;;;6.75;;
73675;SDS011;61975;48.660;10.164;2022-07-23T13:55:34;7.82;;;6.72;;
73675;SDS011;61975;48.660;10.164;2022-07-23T13:58:00;8.18;;;7.00;;
73675;SDS011;61975;48.660;10.164;2022-07-23T14:00:27;8.80;;;7.30;;
73675;SDS011;61975;48.660;10.164;2022-07-23T14:02:54;9.38;;;6.70;;
73675;SDS011;61975;48.660;10.164;2022-07-23T14:05:19;7.60;;;6.80;;
73675;SDS011;61975;48.660;10.164;2022-07-23T14:07:45;9.03;;;7.20;;
73675;SDS011;61975;48.660;10.164;2022-07-23T14:10:14;8.25;;;6.78;;
73675;SDS011;61975;48.660;10.164;2022-07-23T14:12:41;7.35;;;6.32;;
73675;SDS011;61975;48.660;10.164;2022-07-23T14:15:07;7.77;;;6.27;;
73675;SDS011;61975;48.660;10.164;2022-07-23T14:17:34;8.18;;;6.22;;
73675;SDS011;61975;48.660;10.164;2022-07-23T14:20:01;7.18;;;6.35;;
73675;SDS011;61975;48.660;10.164;2022-07-23T14:22:27;8.65;;;6.70;;
73675;SDS011;61975;48.660;10.164;2022-07-23T14:24:53;8.93;;;6.83;;
73675;SDS011;61975;48.660;10.164;2022-07-23T14:27:18;7.53;;;6.40;;
73675;SDS011;61975;48.660;10.164;2022-07-23T14:29:44;10.53;;;6.87;;
73675;SDS011;61975;48.660;10.164;2022-07-23T14:32:09;8.10;;;6.80;;
73675;SDS011;61975;48.660;10.164;2022-07-23T14:34:35;7.67;;;6.63;;
73675;SDS011;61975;48.660;10.164;2022-07-23T14:37:01;8.37;;;6.43;;
73675;SDS011;61975;48.660;10.164;2022-07-23T14:39:26;9.30;;;6.78;;
73675;SDS011;61975;48.660;10.164;2022-07-23T14:41:52;8.57;;;6.60;;
73675;SDS011;61975;48.660;10.164;2022-07-23T14:44:18;7.70;;;6.53;;
73675;SDS011;61975;48.660;10.164;2022-07-23T14:46:43;8.47;;;6.60;;
73675;SDS011;61975;48.660;10.164;2022-07-23T14:49:08;8.57;;;6.60;;
73675;SDS011;61975;48.660;10.164;2022-07-23T14:51:34;8.93;;;6.90;;
73675;SDS011;61975;48.660;10.164;2022-07-23T14:54:01;7.55;;;6.53;;
73675;SDS011;61975;48.660;10.164;2022-07-23T14:56:27;7.77;;;6.70;;
73675;SDS011;61975;48.660;10.164;2022-07-23T14:58:53;8.15;;;6.85;;
73675;SDS011;61975;48.660;10.164;2022-07-23T15:01:20;9.07;;;7.00;;
73675;SDS011;61975;48.660;10.164;2022-07-23T15:03:47;7.75;;;6.57;;
73675;SDS011;61975;48.660;10.164;2022-07-23T15:06:12;8.37;;;6.80;;
73675;SDS011;61975;48.660;10.164;2022-07-23T15:08:38;7.30;;;6.50;;
73675;SDS011;61975;48.660;10.164;2022-07-23T15:11:04;8.02;;;6.30;;
73675;SDS011;61975;48.660;10.164;2022-07-23T15:13:29;7.53;;;6.47;;
73675;SDS011;61975;48.660;10.164;2022-07-23T15:15:55;7.90;;;6.77;;
73675;SDS011;61975;48.660;10.164;2022-07-23T15:18:20;8.13;;;6.17;;
73675;SDS011;61975;48.660;10.164;2022-07-23T15:20:46;8.80;;;6.77;;
73675;SDS011;61975;48.660;10.164;2022-07-23T15:23:11;8.40;;;6.80;;
73675;SDS011;61975;48.660;10.164;2022-07-23T15:25:37;8.10;;;6.50;;